sensor_id;sensor_type;location;lat;lon;timestamp;temperature;humidity
14210;DHT22;7188;56.070;12.698;2023-05-16T00:00:11;13.50;1.00
14210;DHT22;7188;56.070;12.698;2023-05-16T00:02:37;13.50;1.00
14210;DHT22;7188;56.070;12.698;2023-05-16T00:05:04;13.50;1.00
14210;DHT22;7188;56.070;12.698;2023-05-16T00:07:33;13.50;1.00
14210;DHT22;7188;56.070;12.698;2023-05-16T00:09:59;13.50;1.00
14210;DHT22;7188;56.070;12.698;2023-05-16T00:12:25;13.50;1.00
14210;DHT22;7188;56.070;12.698;2023-05-16T00:14:52;13.50;1.00
14210;DHT22;7188;56.070;12.698;2023-05-16T00:17:18;13.50;1.00
14210;DHT22;7188;56.070;12.698;2023-05-16T00:19:45;13.60;1.00
14210;DHT22;7188;56.070;12.698;2023-05-16T00:22:14;13.60;1.00
14210;DHT22;7188;56.070;12.698;2023-05-16T00:24:41;13.60;1.00
14210;DHT22;7188;56.070;12.698;2023-05-16T00:27:06;13.60;1.00
14210;DHT22;7188;56.070;12.698;2023-05-16T00:29:33;13.60;1.00
14210;DHT22;7188;56.070;12.698;2023-05-16T00:31:59;13.60;1.00
14210;DHT22;7188;56.070;12.698;2023-05-16T00:34:25;13.60;1.00
14210;DHT22;7188;56.070;12.698;2023-05-16T00:36:51;13.50;1.00
14210;DHT22;7188;56.070;12.698;2023-05-16T00:39:17;13.50;1.00
14210;DHT22;7188;56.070;12.698;2023-05-16T00:41:43;13.50;19.10
14210;DHT22;7188;56.070;12.698;2023-05-16T00:44:09;13.40;99.90
14210;DHT22;7188;56.070;12.698;2023-05-16T00:46:35;13.40;99.90
14210;DHT22;7188;56.070;12.698;2023-05-16T00:49:00;13.40;99.90
14210;DHT22;7188;56.070;12.698;2023-05-16T00:51:26;13.30;1.00
14210;DHT22;7188;56.070;12.698;2023-05-16T00:53:53;13.30;1.00
14210;DHT22;7188;56.070;12.698;2023-05-16T00:56:20;13.30;1.00
14210;DHT22;7188;56.070;12.698;2023-05-16T00:58:46;13.30;1.00
14210;DHT22;7188;56.070;12.698;2023-05-16T01:01:12;13.30;99.90
14210;DHT22;7188;56.070;12.698;2023-05-16T01:03:38;13.20;99.90
14210;DHT22;7188;56.070;12.698;2023-05-16T01:06:04;13.20;99.90
14210;DHT22;7188;56.070;12.698;2023-05-16T01:08:31;13.20;1.00
14210;DHT22;7188;56.070;12.698;2023-05-16T01:22:36;13.10;1.00
14210;DHT22;7188;56.070;12.698;2023-05-16T01:27:56;13.20;1.00
14210;DHT22;7188;56.070;12.698;2023-05-16T01:30:22;13.20;1.00
14210;DHT22;7188;56.070;12.698;2023-05-16T01:32:48;13.20;1.00
14210;DHT22;7188;56.070;12.698;2023-05-16T01:35:15;13.20;44.80
14210;DHT22;7188;56.070;12.698;2023-05-16T01:43:11;13.20;1.00
14210;DHT22;7188;56.070;12.698;2023-05-16T01:45:44;13.20;99.90
14210;DHT22;7188;56.070;12.698;2023-05-16T01:48:21;13.20;1.00
14210;DHT22;7188;56.070;12.698;2023-05-16T01:50:53;13.20;99.90
14210;DHT22;7188;56.070;12.698;2023-05-16T01:53:24;13.20;1.00
14210;DHT22;7188;56.070;12.698;2023-05-16T01:55:51;13.10;1.00
14210;DHT22;7188;56.070;12.698;2023-05-16T01:58:22;13.10;99.90
14210;DHT22;7188;56.070;12.698;2023-05-16T02:00:49;13.10;99.90
14210;DHT22;7188;56.070;12.698;2023-05-16T02:03:14;13.00;99.90
14210;DHT22;7188;56.070;12.698;2023-05-16T02:05:40;13.00;99.90
14210;DHT22;7188;56.070;12.698;2023-05-16T02:08:07;12.90;99.90
14210;DHT22;7188;56.070;12.698;2023-05-16T02:10:33;12.90;99.90
14210;DHT22;7188;56.070;12.698;2023-05-16T02:12:59;12.80;99.90
14210;DHT22;7188;56.070;12.698;2023-05-16T02:15:24;12.80;99.90
14210;DHT22;7188;56.070;12.698;2023-05-16T02:17:50;12.80;99.90
14210;DHT22;7188;56.070;12.698;2023-05-16T02:20:16;12.70;99.90
14210;DHT22;7188;56.070;12.698;2023-05-16T02:22:41;12.70;99.90
14210;DHT22;7188;56.070;12.698;2023-05-16T02:25:09;12.60;99.90
14210;DHT22;7188;56.070;12.698;2023-05-16T02:27:34;12.50;99.90
14210;DHT22;7188;56.070;12.698;2023-05-16T02:30:01;12.40;99.90
14210;DHT22;7188;56.070;12.698;2023-05-16T02:32:26;12.40;99.90
14210;DHT22;7188;56.070;12.698;2023-05-16T02:34:52;12.30;99.90
14210;DHT22;7188;56.070;12.698;2023-05-16T02:37:18;12.30;99.90
14210;DHT22;7188;56.070;12.698;2023-05-16T02:39:43;12.30;99.90
14210;DHT22;7188;56.070;12.698;2023-05-16T02:42:09;12.20;99.90
14210;DHT22;7188;56.070;12.698;2023-05-16T02:44:35;12.20;99.90
14210;DHT22;7188;56.070;12.698;2023-05-16T02:47:00;12.10;99.90
14210;DHT22;7188;56.070;12.698;2023-05-16T02:49:26;12.10;99.90
14210;DHT22;7188;56.070;12.698;2023-05-16T02:51:52;12.10;99.90
14210;DHT22;7188;56.070;12.698;2023-05-16T02:54:17;12.00;99.90
14210;DHT22;7188;56.070;12.698;2023-05-16T02:56:43;12.00;99.90
14210;DHT22;7188;56.070;12.698;2023-05-16T02:59:10;12.00;99.90
14210;DHT22;7188;56.070;12.698;2023-05-16T03:01:37;11.90;99.90
14210;DHT22;7188;56.070;12.698;2023-05-16T03:04:03;11.90;99.90
14210;DHT22;7188;56.070;12.698;2023-05-16T03:06:29;11.80;99.90
14210;DHT22;7188;56.070;12.698;2023-05-16T03:08:57;11.80;99.90
14210;DHT22;7188;56.070;12.698;2023-05-16T03:11:23;11.80;99.90
14210;DHT22;7188;56.070;12.698;2023-05-16T03:13:49;11.90;99.90
14210;DHT22;7188;56.070;12.698;2023-05-16T03:16:15;11.80;99.90
14210;DHT22;7188;56.070;12.698;2023-05-16T03:18:41;11.80;99.90
14210;DHT22;7188;56.070;12.698;2023-05-16T03:21:07;11.80;99.90
14210;DHT22;7188;56.070;12.698;2023-05-16T03:23:33;11.80;99.90
14210;DHT22;7188;56.070;12.698;2023-05-16T03:25:58;11.80;99.90
14210;DHT22;7188;56.070;12.698;2023-05-16T03:28:25;11.80;99.90
14210;DHT22;7188;56.070;12.698;2023-05-16T03:30:51;11.70;99.90
14210;DHT22;7188;56.070;12.698;2023-05-16T03:33:16;11.70;99.90
14210;DHT22;7188;56.070;12.698;2023-05-16T03:35:44;11.70;99.90
14210;DHT22;7188;56.070;12.698;2023-05-16T03:38:10;11.70;99.90
14210;DHT22;7188;56.070;12.698;2023-05-16T03:40:37;11.70;99.90
14210;DHT22;7188;56.070;12.698;2023-05-16T03:43:02;11.70;99.90
14210;DHT22;7188;56.070;12.698;2023-05-16T03:45:29;11.70;99.90
14210;DHT22;7188;56.070;12.698;2023-05-16T03:47:55;11.70;99.90
14210;DHT22;7188;56.070;12.698;2023-05-16T03:50:21;11.70;99.90
14210;DHT22;7188;56.070;12.698;2023-05-16T03:52:47;11.60;99.90
14210;DHT22;7188;56.070;12.698;2023-05-16T03:55:12;11.60;99.90
14210;DHT22;7188;56.070;12.698;2023-05-16T03:57:40;11.60;99.90
14210;DHT22;7188;56.070;12.698;2023-05-16T04:00:08;11.60;99.90
14210;DHT22;7188;56.070;12.698;2023-05-16T04:02:35;11.60;99.90
14210;DHT22;7188;56.070;12.698;2023-05-16T04:05:01;11.60;99.90
14210;DHT22;7188;56.070;12.698;2023-05-16T04:07:27;11.60;99.90
14210;DHT22;7188;56.070;12.698;2023-05-16T04:09:53;11.60;99.90
14210;DHT22;7188;56.070;12.698;2023-05-16T04:12:20;11.60;99.90
14210;DHT22;7188;56.070;12.698;2023-05-16T04:14:47;11.50;99.90
14210;DHT22;7188;56.070;12.698;2023-05-16T04:17:13;11.50;99.90
14210;DHT22;7188;56.070;12.698;2023-05-16T04:19:38;11.50;99.90
14210;DHT22;7188;56.070;12.698;2023-05-16T04:22:05;11.50;99.90
14210;DHT22;7188;56.070;12.698;2023-05-16T04:24:30;11.50;99.90
14210;DHT22;7188;56.070;12.698;2023-05-16T04:26:56;11.50;99.90
14210;DHT22;7188;56.070;12.698;2023-05-16T04:29:22;11.50;99.90
14210;DHT22;7188;56.070;12.698;2023-05-16T04:31:48;11.40;99.90
14210;DHT22;7188;56.070;12.698;2023-05-16T04:34:13;11.40;99.90
14210;DHT22;7188;56.070;12.698;2023-05-16T04:36:40;11.50;99.90
14210;DHT22;7188;56.070;12.698;2023-05-16T04:39:06;11.40;99.90
14210;DHT22;7188;56.070;12.698;2023-05-16T04:41:32;11.40;99.90
14210;DHT22;7188;56.070;12.698;2023-05-16T04:44:02;11.40;99.90
14210;DHT22;7188;56.070;12.698;2023-05-16T04:46:30;11.40;99.90
14210;DHT22;7188;56.070;12.698;2023-05-16T04:48:56;11.40;99.90
14210;DHT22;7188;56.070;12.698;2023-05-16T04:51:22;11.40;99.90
14210;DHT22;7188;56.070;12.698;2023-05-16T04:53:49;11.40;99.90
14210;DHT22;7188;56.070;12.698;2023-05-16T04:56:15;11.40;99.90
14210;DHT22;7188;56.070;12.698;2023-05-16T04:58:40;11.40;99.90
14210;DHT22;7188;56.070;12.698;2023-05-16T05:01:06;11.40;99.90
14210;DHT22;7188;56.070;12.698;2023-05-16T05:03:33;11.50;99.90
14210;DHT22;7188;56.070;12.698;2023-05-16T05:05:58;11.50;99.90
14210;DHT22;7188;56.070;12.698;2023-05-16T05:08:24;11.50;99.90
14210;DHT22;7188;56.070;12.698;2023-05-16T05:10:50;11.50;99.90
14210;DHT22;7188;56.070;12.698;2023-05-16T05:13:16;11.50;99.90
14210;DHT22;7188;56.070;12.698;2023-05-16T05:15:41;11.50;99.90
14210;DHT22;7188;56.070;12.698;2023-05-16T05:18:07;11.50;99.90
14210;DHT22;7188;56.070;12.698;2023-05-16T05:20:33;11.40;99.90
14210;DHT22;7188;56.070;12.698;2023-05-16T05:22:59;11.40;99.90
14210;DHT22;7188;56.070;12.698;2023-05-16T05:25:25;11.50;99.90
14210;DHT22;7188;56.070;12.698;2023-05-16T05:27:51;11.50;99.90
14210;DHT22;7188;56.070;12.698;2023-05-16T05:30:16;11.40;99.90
14210;DHT22;7188;56.070;12.698;2023-05-16T05:32:42;11.40;99.90
14210;DHT22;7188;56.070;12.698;2023-05-16T05:35:08;11.40;99.90
14210;DHT22;7188;56.070;12.698;2023-05-16T05:37:33;11.40;99.90
14210;DHT22;7188;56.070;12.698;2023-05-16T05:39:59;11.40;99.90
14210;DHT22;7188;56.070;12.698;2023-05-16T05:42:25;11.40;99.90
14210;DHT22;7188;56.070;12.698;2023-05-16T05:44:51;11.30;99.90
14210;DHT22;7188;56.070;12.698;2023-05-16T05:47:16;11.30;99.90
14210;DHT22;7188;56.070;12.698;2023-05-16T05:49:42;11.40;99.90
14210;DHT22;7188;56.070;12.698;2023-05-16T05:52:08;11.30;99.90
14210;DHT22;7188;56.070;12.698;2023-05-16T05:54:34;11.30;99.90
14210;DHT22;7188;56.070;12.698;2023-05-16T05:57:00;11.40;99.90
14210;DHT22;7188;56.070;12.698;2023-05-16T05:59:27;11.30;99.90
14210;DHT22;7188;56.070;12.698;2023-05-16T06:01:52;11.30;99.90
14210;DHT22;7188;56.070;12.698;2023-05-16T06:04:19;11.40;99.90
14210;DHT22;7188;56.070;12.698;2023-05-16T06:06:45;11.30;99.90
14210;DHT22;7188;56.070;12.698;2023-05-16T06:09:11;11.50;99.90
14210;DHT22;7188;56.070;12.698;2023-05-16T06:11:38;11.50;99.90
14210;DHT22;7188;56.070;12.698;2023-05-16T06:14:05;11.50;99.90
14210;DHT22;7188;56.070;12.698;2023-05-16T06:16:31;11.40;99.90
14210;DHT22;7188;56.070;12.698;2023-05-16T06:18:56;11.40;99.90
14210;DHT22;7188;56.070;12.698;2023-05-16T06:21:22;11.40;99.90
14210;DHT22;7188;56.070;12.698;2023-05-16T06:23:50;11.40;99.90
14210;DHT22;7188;56.070;12.698;2023-05-16T06:26:16;11.50;99.90
14210;DHT22;7188;56.070;12.698;2023-05-16T06:28:43;11.40;99.90
14210;DHT22;7188;56.070;12.698;2023-05-16T06:31:09;11.40;99.90
14210;DHT22;7188;56.070;12.698;2023-05-16T06:33:34;11.40;99.90
14210;DHT22;7188;56.070;12.698;2023-05-16T06:36:00;11.50;99.90
14210;DHT22;7188;56.070;12.698;2023-05-16T06:38:26;11.60;99.90
14210;DHT22;7188;56.070;12.698;2023-05-16T06:40:51;11.50;99.90
14210;DHT22;7188;56.070;12.698;2023-05-16T06:43:17;11.50;99.90
14210;DHT22;7188;56.070;12.698;2023-05-16T06:45:44;11.50;99.90
14210;DHT22;7188;56.070;12.698;2023-05-16T06:48:12;11.40;99.90
14210;DHT22;7188;56.070;12.698;2023-05-16T06:50:38;11.40;99.90
14210;DHT22;7188;56.070;12.698;2023-05-16T06:53:03;11.40;99.90
14210;DHT22;7188;56.070;12.698;2023-05-16T06:55:33;11.40;99.90
14210;DHT22;7188;56.070;12.698;2023-05-16T06:57:58;11.40;99.90
14210;DHT22;7188;56.070;12.698;2023-05-16T07:00:24;11.30;99.90
14210;DHT22;7188;56.070;12.698;2023-05-16T07:02:51;11.30;99.90
14210;DHT22;7188;56.070;12.698;2023-05-16T07:05:17;11.40;99.90
14210;DHT22;7188;56.070;12.698;2023-05-16T07:07:43;11.30;99.90
14210;DHT22;7188;56.070;12.698;2023-05-16T07:10:09;11.30;99.90
14210;DHT22;7188;56.070;12.698;2023-05-16T07:12:35;11.30;99.90
14210;DHT22;7188;56.070;12.698;2023-05-16T07:15:04;11.30;99.90
14210;DHT22;7188;56.070;12.698;2023-05-16T07:17:30;11.30;99.90
14210;DHT22;7188;56.070;12.698;2023-05-16T07:19:56;11.30;99.90
14210;DHT22;7188;56.070;12.698;2023-05-16T07:22:21;11.30;99.90
14210;DHT22;7188;56.070;12.698;2023-05-16T07:24:47;11.30;99.90
14210;DHT22;7188;56.070;12.698;2023-05-16T07:27:13;11.30;99.90
14210;DHT22;7188;56.070;12.698;2023-05-16T07:29:40;11.30;99.90
14210;DHT22;7188;56.070;12.698;2023-05-16T07:32:06;11.30;99.90
14210;DHT22;7188;56.070;12.698;2023-05-16T07:34:32;11.30;99.90
14210;DHT22;7188;56.070;12.698;2023-05-16T07:36:57;11.30;99.90
14210;DHT22;7188;56.070;12.698;2023-05-16T07:39:23;11.30;99.90
14210;DHT22;7188;56.070;12.698;2023-05-16T07:41:49;11.30;99.90
14210;DHT22;7188;56.070;12.698;2023-05-16T07:44:14;11.30;99.90
14210;DHT22;7188;56.070;12.698;2023-05-16T07:46:40;11.20;99.90
14210;DHT22;7188;56.070;12.698;2023-05-16T07:49:09;11.20;99.90
14210;DHT22;7188;56.070;12.698;2023-05-16T07:51:36;11.30;99.90
14210;DHT22;7188;56.070;12.698;2023-05-16T07:54:01;11.20;99.90
14210;DHT22;7188;56.070;12.698;2023-05-16T07:56:27;11.30;99.90
14210;DHT22;7188;56.070;12.698;2023-05-16T07:58:53;11.30;99.90
14210;DHT22;7188;56.070;12.698;2023-05-16T08:01:19;11.30;99.90
14210;DHT22;7188;56.070;12.698;2023-05-16T08:04:06;11.30;99.90
14210;DHT22;7188;56.070;12.698;2023-05-16T08:06:32;11.30;99.90
14210;DHT22;7188;56.070;12.698;2023-05-16T08:08:59;11.40;99.90
14210;DHT22;7188;56.070;12.698;2023-05-16T08:11:24;11.40;99.90
14210;DHT22;7188;56.070;12.698;2023-05-16T08:13:50;11.40;99.90
14210;DHT22;7188;56.070;12.698;2023-05-16T08:16:16;11.40;99.90
14210;DHT22;7188;56.070;12.698;2023-05-16T08:18:42;11.40;99.90
14210;DHT22;7188;56.070;12.698;2023-05-16T08:21:07;11.50;99.90
14210;DHT22;7188;56.070;12.698;2023-05-16T08:23:36;11.60;99.90
14210;DHT22;7188;56.070;12.698;2023-05-16T08:26:01;11.70;93.90
14210;DHT22;7188;56.070;12.698;2023-05-16T08:28:28;11.80;47.70
14210;DHT22;7188;56.070;12.698;2023-05-16T08:30:54;11.80;1.00
14210;DHT22;7188;56.070;12.698;2023-05-16T08:33:19;11.90;1.00
14210;DHT22;7188;56.070;12.698;2023-05-16T08:35:45;11.90;1.00
14210;DHT22;7188;56.070;12.698;2023-05-16T08:38:13;12.10;1.00
14210;DHT22;7188;56.070;12.698;2023-05-16T08:40:39;12.40;1.00
14210;DHT22;7188;56.070;12.698;2023-05-16T08:43:05;12.70;1.00
14210;DHT22;7188;56.070;12.698;2023-05-16T08:45:31;12.80;99.90
14210;DHT22;7188;56.070;12.698;2023-05-16T08:48:00;12.70;1.00
14210;DHT22;7188;56.070;12.698;2023-05-16T08:50:29;12.70;1.00
14210;DHT22;7188;56.070;12.698;2023-05-16T08:52:56;12.60;1.00
14210;DHT22;7188;56.070;12.698;2023-05-16T08:55:23;12.50;99.90
14210;DHT22;7188;56.070;12.698;2023-05-16T08:57:52;12.60;1.00
14210;DHT22;7188;56.070;12.698;2023-05-16T09:00:19;12.80;99.90
14210;DHT22;7188;56.070;12.698;2023-05-16T09:02:45;12.80;99.90
14210;DHT22;7188;56.070;12.698;2023-05-16T09:05:16;12.80;99.90
14210;DHT22;7188;56.070;12.698;2023-05-16T09:07:42;12.90;99.90
14210;DHT22;7188;56.070;12.698;2023-05-16T09:10:10;13.00;8.00
14210;DHT22;7188;56.070;12.698;2023-05-16T09:12:37;13.10;99.90
14210;DHT22;7188;56.070;12.698;2023-05-16T09:15:05;13.30;1.00
14210;DHT22;7188;56.070;12.698;2023-05-16T09:17:38;13.40;1.00
14210;DHT22;7188;56.070;12.698;2023-05-16T09:20:12;13.30;31.90
14210;DHT22;7188;56.070;12.698;2023-05-16T09:22:38;13.40;1.00
14210;DHT22;7188;56.070;12.698;2023-05-16T09:25:05;13.50;99.90
14210;DHT22;7188;56.070;12.698;2023-05-16T09:27:31;13.40;99.90
14210;DHT22;7188;56.070;12.698;2023-05-16T09:29:57;13.60;1.00
14210;DHT22;7188;56.070;12.698;2023-05-16T09:32:23;13.80;1.00
14210;DHT22;7188;56.070;12.698;2023-05-16T09:34:52;13.80;1.00
14210;DHT22;7188;56.070;12.698;2023-05-16T09:37:19;13.70;1.00
14210;DHT22;7188;56.070;12.698;2023-05-16T09:42:17;13.80;65.30
14210;DHT22;7188;56.070;12.698;2023-05-16T09:44:51;13.90;99.90
14210;DHT22;7188;56.070;12.698;2023-05-16T09:47:20;13.60;99.90
14210;DHT22;7188;56.070;12.698;2023-05-16T09:49:49;13.60;99.90
14210;DHT22;7188;56.070;12.698;2023-05-16T09:52:16;13.70;1.00
14210;DHT22;7188;56.070;12.698;2023-05-16T09:54:44;14.00;1.00
14210;DHT22;7188;56.070;12.698;2023-05-16T09:57:10;14.20;1.00
14210;DHT22;7188;56.070;12.698;2023-05-16T09:59:37;14.10;99.90
14210;DHT22;7188;56.070;12.698;2023-05-16T10:02:05;14.00;1.00
14210;DHT22;7188;56.070;12.698;2023-05-16T10:04:35;14.20;1.00
14210;DHT22;7188;56.070;12.698;2023-05-16T10:07:05;14.20;99.90
14210;DHT22;7188;56.070;12.698;2023-05-16T10:09:35;14.10;99.90
14210;DHT22;7188;56.070;12.698;2023-05-16T10:12:07;14.00;90.70
14210;DHT22;7188;56.070;12.698;2023-05-16T10:14:37;13.80;99.90
14210;DHT22;7188;56.070;12.698;2023-05-16T10:17:04;13.70;99.90
14210;DHT22;7188;56.070;12.698;2023-05-16T10:19:40;13.70;99.90
14210;DHT22;7188;56.070;12.698;2023-05-16T10:22:07;13.70;99.90
14210;DHT22;7188;56.070;12.698;2023-05-16T10:24:47;13.60;99.90
14210;DHT22;7188;56.070;12.698;2023-05-16T10:27:19;13.60;99.90
14210;DHT22;7188;56.070;12.698;2023-05-16T10:29:46;13.70;99.90
14210;DHT22;7188;56.070;12.698;2023-05-16T10:32:12;13.60;99.90
14210;DHT22;7188;56.070;12.698;2023-05-16T10:34:39;13.60;99.90
14210;DHT22;7188;56.070;12.698;2023-05-16T10:37:06;13.50;99.90
14210;DHT22;7188;56.070;12.698;2023-05-16T10:39:32;13.40;99.90
14210;DHT22;7188;56.070;12.698;2023-05-16T10:41:58;13.40;99.90
14210;DHT22;7188;56.070;12.698;2023-05-16T10:44:25;13.40;99.90
14210;DHT22;7188;56.070;12.698;2023-05-16T10:46:50;13.50;99.90
14210;DHT22;7188;56.070;12.698;2023-05-16T10:49:24;13.50;99.90
14210;DHT22;7188;56.070;12.698;2023-05-16T10:52:16;13.50;99.90
14210;DHT22;7188;56.070;12.698;2023-05-16T10:54:51;13.50;99.90
14210;DHT22;7188;56.070;12.698;2023-05-16T10:57:22;13.60;99.90
14210;DHT22;7188;56.070;12.698;2023-05-16T10:59:50;13.70;99.90
14210;DHT22;7188;56.070;12.698;2023-05-16T11:02:40;13.60;1.00
14210;DHT22;7188;56.070;12.698;2023-05-16T11:05:13;13.60;99.90
14210;DHT22;7188;56.070;12.698;2023-05-16T11:07:42;13.60;93.50
14210;DHT22;7188;56.070;12.698;2023-05-16T11:10:10;13.70;30.20
14210;DHT22;7188;56.070;12.698;2023-05-16T11:12:42;13.70;99.90
14210;DHT22;7188;56.070;12.698;2023-05-16T11:15:26;13.80;99.90
14210;DHT22;7188;56.070;12.698;2023-05-16T11:18:15;13.80;93.90
14210;DHT22;7188;56.070;12.698;2023-05-16T11:20:41;13.70;99.90
14210;DHT22;7188;56.070;12.698;2023-05-16T11:25:42;13.50;99.90
14210;DHT22;7188;56.070;12.698;2023-05-16T11:28:14;13.60;99.90
14210;DHT22;7188;56.070;12.698;2023-05-16T11:30:47;13.60;99.90
14210;DHT22;7188;56.070;12.698;2023-05-16T11:33:17;13.70;99.90
14210;DHT22;7188;56.070;12.698;2023-05-16T11:35:44;13.80;39.80
14210;DHT22;7188;56.070;12.698;2023-05-16T11:38:24;13.80;1.00
14210;DHT22;7188;56.070;12.698;2023-05-16T11:40:50;13.90;1.00
14210;DHT22;7188;56.070;12.698;2023-05-16T11:43:19;13.90;1.00
14210;DHT22;7188;56.070;12.698;2023-05-16T11:45:44;14.00;1.00
14210;DHT22;7188;56.070;12.698;2023-05-16T11:48:11;14.20;1.00
14210;DHT22;7188;56.070;12.698;2023-05-16T11:50:37;14.10;1.00
14210;DHT22;7188;56.070;12.698;2023-05-16T11:53:03;14.10;1.00
14210;DHT22;7188;56.070;12.698;2023-05-16T11:55:29;14.30;1.00
14210;DHT22;7188;56.070;12.698;2023-05-16T11:57:57;14.60;1.00
14210;DHT22;7188;56.070;12.698;2023-05-16T12:00:25;14.70;99.90
14210;DHT22;7188;56.070;12.698;2023-05-16T12:02:57;14.90;99.90
14210;DHT22;7188;56.070;12.698;2023-05-16T12:05:25;15.20;99.90
14210;DHT22;7188;56.070;12.698;2023-05-16T12:07:53;15.40;99.90
14210;DHT22;7188;56.070;12.698;2023-05-16T12:10:19;15.60;99.90
14210;DHT22;7188;56.070;12.698;2023-05-16T12:12:47;15.80;99.90
14210;DHT22;7188;56.070;12.698;2023-05-16T12:15:13;15.50;99.90
14210;DHT22;7188;56.070;12.698;2023-05-16T12:17:40;15.40;99.90
14210;DHT22;7188;56.070;12.698;2023-05-16T12:20:08;15.30;99.90
14210;DHT22;7188;56.070;12.698;2023-05-16T12:22:43;14.90;99.90
14210;DHT22;7188;56.070;12.698;2023-05-16T12:27:55;14.80;99.90
14210;DHT22;7188;56.070;12.698;2023-05-16T12:30:26;14.90;99.90
14210;DHT22;7188;56.070;12.698;2023-05-16T12:35:22;15.40;99.90
14210;DHT22;7188;56.070;12.698;2023-05-16T12:37:49;15.60;99.90
14210;DHT22;7188;56.070;12.698;2023-05-16T12:40:16;15.80;99.90
14210;DHT22;7188;56.070;12.698;2023-05-16T12:42:44;15.70;99.90
14210;DHT22;7188;56.070;12.698;2023-05-16T12:45:14;15.70;99.90
14210;DHT22;7188;56.070;12.698;2023-05-16T12:47:41;15.50;92.10
14210;DHT22;7188;56.070;12.698;2023-05-16T12:50:14;15.50;99.90
14210;DHT22;7188;56.070;12.698;2023-05-16T12:52:51;15.50;97.10
14210;DHT22;7188;56.070;12.698;2023-05-16T12:55:21;15.60;98.10
14210;DHT22;7188;56.070;12.698;2023-05-16T12:57:48;15.70;71.20
14210;DHT22;7188;56.070;12.698;2023-05-16T13:00:16;15.80;44.40
14210;DHT22;7188;56.070;12.698;2023-05-16T13:02:47;15.90;23.50
14210;DHT22;7188;56.070;12.698;2023-05-16T13:05:13;15.90;1.00
14210;DHT22;7188;56.070;12.698;2023-05-16T13:07:40;15.90;29.20
14210;DHT22;7188;56.070;12.698;2023-05-16T13:10:07;15.80;12.70
14210;DHT22;7188;56.070;12.698;2023-05-16T13:12:36;15.80;1.00
14210;DHT22;7188;56.070;12.698;2023-05-16T13:15:04;15.60;1.00
14210;DHT22;7188;56.070;12.698;2023-05-16T13:17:34;15.60;1.00
14210;DHT22;7188;56.070;12.698;2023-05-16T13:20:00;15.40;1.00
14210;DHT22;7188;56.070;12.698;2023-05-16T13:22:26;15.50;4.10
14210;DHT22;7188;56.070;12.698;2023-05-16T13:24:56;15.40;1.00
14210;DHT22;7188;56.070;12.698;2023-05-16T13:27:22;15.40;1.00
14210;DHT22;7188;56.070;12.698;2023-05-16T13:29:47;15.50;1.00
14210;DHT22;7188;56.070;12.698;2023-05-16T13:32:13;15.40;1.00
14210;DHT22;7188;56.070;12.698;2023-05-16T13:34:39;15.40;1.00
14210;DHT22;7188;56.070;12.698;2023-05-16T13:37:04;15.50;1.00
14210;DHT22;7188;56.070;12.698;2023-05-16T13:39:30;15.50;1.00
14210;DHT22;7188;56.070;12.698;2023-05-16T13:41:55;15.40;1.00
14210;DHT22;7188;56.070;12.698;2023-05-16T13:44:21;15.40;1.00
14210;DHT22;7188;56.070;12.698;2023-05-16T13:46:47;15.40;1.00
14210;DHT22;7188;56.070;12.698;2023-05-16T13:49:13;15.30;1.00
14210;DHT22;7188;56.070;12.698;2023-05-16T13:51:38;15.20;1.00
14210;DHT22;7188;56.070;12.698;2023-05-16T13:54:04;15.20;1.00
14210;DHT22;7188;56.070;12.698;2023-05-16T13:56:30;15.10;1.00
14210;DHT22;7188;56.070;12.698;2023-05-16T13:58:55;15.00;1.00
14210;DHT22;7188;56.070;12.698;2023-05-16T14:01:21;14.90;1.00
14210;DHT22;7188;56.070;12.698;2023-05-16T14:03:47;14.80;1.00
14210;DHT22;7188;56.070;12.698;2023-05-16T14:06:13;14.70;43.80
14210;DHT22;7188;56.070;12.698;2023-05-16T14:08:38;14.50;32.50
14210;DHT22;7188;56.070;12.698;2023-05-16T14:11:04;14.50;50.90
14210;DHT22;7188;56.070;12.698;2023-05-16T14:13:30;14.50;99.90
14210;DHT22;7188;56.070;12.698;2023-05-16T14:15:56;14.50;99.90
14210;DHT22;7188;56.070;12.698;2023-05-16T14:18:22;14.60;99.90
14210;DHT22;7188;56.070;12.698;2023-05-16T14:20:49;14.50;59.80
14210;DHT22;7188;56.070;12.698;2023-05-16T14:23:15;14.50;79.30
14210;DHT22;7188;56.070;12.698;2023-05-16T14:25:41;14.50;56.10
14210;DHT22;7188;56.070;12.698;2023-05-16T14:28:06;14.60;76.10
14210;DHT22;7188;56.070;12.698;2023-05-16T14:30:32;14.60;99.90
14210;DHT22;7188;56.070;12.698;2023-05-16T14:32:58;14.70;94.70
14210;DHT22;7188;56.070;12.698;2023-05-16T14:35:24;14.70;75.30
14210;DHT22;7188;56.070;12.698;2023-05-16T14:37:50;14.60;47.30
14210;DHT22;7188;56.070;12.698;2023-05-16T14:40:16;14.50;59.70
14210;DHT22;7188;56.070;12.698;2023-05-16T14:42:42;14.50;58.20
14210;DHT22;7188;56.070;12.698;2023-05-16T14:45:07;14.50;65.60
14210;DHT22;7188;56.070;12.698;2023-05-16T14:47:33;14.40;61.60
14210;DHT22;7188;56.070;12.698;2023-05-16T14:49:59;14.40;61.20
14210;DHT22;7188;56.070;12.698;2023-05-16T14:52:25;14.40;67.40
14210;DHT22;7188;56.070;12.698;2023-05-16T14:54:51;14.50;95.60
14210;DHT22;7188;56.070;12.698;2023-05-16T14:57:16;14.60;99.90
14210;DHT22;7188;56.070;12.698;2023-05-16T14:59:42;14.40;99.90
14210;DHT22;7188;56.070;12.698;2023-05-16T15:02:09;14.30;99.90
14210;DHT22;7188;56.070;12.698;2023-05-16T15:04:34;14.20;99.90
14210;DHT22;7188;56.070;12.698;2023-05-16T15:07:00;14.20;99.90
14210;DHT22;7188;56.070;12.698;2023-05-16T15:09:26;14.10;99.90
14210;DHT22;7188;56.070;12.698;2023-05-16T15:11:51;14.20;99.90
14210;DHT22;7188;56.070;12.698;2023-05-16T15:14:17;14.10;99.90
14210;DHT22;7188;56.070;12.698;2023-05-16T15:16:43;14.10;99.90
14210;DHT22;7188;56.070;12.698;2023-05-16T15:19:27;14.10;99.90
14210;DHT22;7188;56.070;12.698;2023-05-16T15:21:53;14.00;99.90
14210;DHT22;7188;56.070;12.698;2023-05-16T15:24:19;13.90;99.90
14210;DHT22;7188;56.070;12.698;2023-05-16T15:26:45;13.80;99.90
14210;DHT22;7188;56.070;12.698;2023-05-16T15:29:11;13.70;99.90
14210;DHT22;7188;56.070;12.698;2023-05-16T15:31:37;13.60;99.90
14210;DHT22;7188;56.070;12.698;2023-05-16T15:34:04;13.60;99.90
14210;DHT22;7188;56.070;12.698;2023-05-16T15:36:32;13.50;99.90
14210;DHT22;7188;56.070;12.698;2023-05-16T15:38:57;13.40;99.90
14210;DHT22;7188;56.070;12.698;2023-05-16T15:41:23;13.30;99.90
14210;DHT22;7188;56.070;12.698;2023-05-16T15:43:48;13.30;99.90
14210;DHT22;7188;56.070;12.698;2023-05-16T15:46:14;13.10;99.90
14210;DHT22;7188;56.070;12.698;2023-05-16T15:48:40;13.10;99.90
14210;DHT22;7188;56.070;12.698;2023-05-16T15:51:10;13.00;99.90
14210;DHT22;7188;56.070;12.698;2023-05-16T15:53:36;13.10;99.90
14210;DHT22;7188;56.070;12.698;2023-05-16T15:56:01;13.10;99.90
14210;DHT22;7188;56.070;12.698;2023-05-16T15:58:27;13.00;99.90
14210;DHT22;7188;56.070;12.698;2023-05-16T16:00:53;13.00;99.90
14210;DHT22;7188;56.070;12.698;2023-05-16T16:03:20;13.00;99.90